28 | 05 | 2018

Daten Vortag

Wetterdaten von 10m Höhe gemessen, Station2

Datum / Zeit Intervall min Luftfeuchte % Temperatur °C absolut Luftdruck hPa Wind m/s Windbö m/s Richtung Relative Luftdruck hPa Taupunkt °C Windchill °C Niederschlag mm
27-05-2018 00:14 5 88 13.7 1023.8 0.0 2.5 NW 1025.3 11.8 13.7 0.0
27-05-2018 00:15 5 88 13.8 1023.8 0.0 0.0 N 1025.3 11.9 13.8 0.0
27-05-2018 00:20 5 88 13.7 1023.8 0.0 0.0 NW 1025.3 11.8 13.7 0.0
27-05-2018 00:27 5 88 13.4 1023.7 0.0 0.0 NW 1025.2 11.5 13.4 0.0
27-05-2018 00:32 5 88 13.4 1023.7 1.1 3.6 N 1025.2 11.5 13.4 0.0
27-05-2018 00:37 5 88 13.3 1023.7 0.0 3.6 SW 1025.2 11.4 13.3 0.0
27-05-2018 00:42 5 88 13.1 1023.7 0.0 1.1 W 1025.2 11.2 13.1 0.0
27-05-2018 00:47 5 89 13.2 1023.7 9.7 12.2 NW 1025.2 11.4 11.0 0.0
27-05-2018 00:52 5 89 13.1 1023.7 6.1 8.6 NW 1025.2 11.3 13.1 0.0
27-05-2018 00:57 5 89 12.9 1023.6 1.1 2.5 NW 1025.1 11.1 12.9 0.0
27-05-2018 01:02 5 90 12.7 1023.7 5.0 7.2 NW 1025.2 11.1 12.7 0.0
27-05-2018 01:07 5 90 12.9 1023.7 5.0 6.1 NW 1025.2 11.3 12.9 0.0
27-05-2018 01:12 5 90 12.8 1023.7 3.6 6.1 NW 1025.2 11.2 12.8 0.0
27-05-2018 01:17 5 91 12.6 1023.5 2.5 5.0 W 1025.0 11.2 12.6 0.0
27-05-2018 01:22 5 91 12.3 1023.7 2.5 3.6 W 1025.2 10.9 12.3 0.0
27-05-2018 01:27 5 91 12.3 1023.8 3.6 5.0 W 1025.3 10.9 12.3 0.0
27-05-2018 01:32 5 91 12.1 1023.7 5.0 6.1 NW 1025.2 10.7 12.1 0.0
27-05-2018 01:37 5 91 12.0 1023.7 3.6 5.0 NW 1025.2 10.6 12.0 0.0
27-05-2018 01:42 5 92 11.9 1023.6 2.5 3.6 W 1025.1 10.7 11.9 0.0
27-05-2018 01:47 5 92 11.6 1023.7 3.6 5.0 NW 1025.2 10.4 11.6 0.0
27-05-2018 01:52 5 92 11.7 1023.8 3.6 5.0 NW 1025.3 10.5 11.7 0.0
27-05-2018 01:57 5 92 11.7 1023.8 0.0 0.0 NW 1025.3 10.5 11.7 0.0
27-05-2018 02:02 5 92 11.6 1023.7 2.5 3.6 NWW 1025.2 10.4 11.6 0.0
27-05-2018 02:07 5 92 11.6 1023.7 3.6 5.0 W 1025.2 10.4 11.6 0.0
27-05-2018 02:12 5 92 11.7 1023.7 2.5 3.6 NW 1025.2 10.5 11.7 0.0
27-05-2018 02:17 5 92 11.7 1023.6 1.1 2.5 NW 1025.1 10.5 11.7 0.0
27-05-2018 02:22 5 93 11.9 1023.7 1.1 5.0 N 1025.2 10.8 11.9 0.0
27-05-2018 02:27 5 92 12.1 1023.6 3.6 5.0 N 1025.1 10.9 12.1 0.0
27-05-2018 02:32 5 92 12.4 1023.5 1.1 3.6 NE 1025.0 11.2 12.4 0.0
27-05-2018 02:37 5 93 12.7 1023.5 2.5 5.0 NE 1025.0 11.6 12.7 0.0
27-05-2018 02:42 5 93 13.1 1023.5 3.6 6.1 NE 1025.0 12.0 13.1 0.0
27-05-2018 02:47 5 93 13.2 1023.5 2.5 3.6 E 1025.0 12.1 13.2 0.0
27-05-2018 02:52 5 94 13.3 1023.5 3.6 5.0 SE 1025.0 12.4 13.3 0.0
27-05-2018 02:57 5 94 13.4 1023.5 2.5 5.0 E 1025.0 12.5 13.4 0.0
27-05-2018 03:02 5 94 13.5 1023.5 0.0 0.0 E 1025.0 12.6 13.5 0.0
27-05-2018 03:07 5 94 13.5 1023.6 1.1 3.6 E 1025.1 12.6 13.5 0.0
27-05-2018 03:12 5 94 13.6 1023.4 1.1 2.5 E 1024.9 12.7 13.6 0.0
27-05-2018 03:17 5 94 13.6 1023.5 1.1 3.6 E 1025.0 12.7 13.6 0.0
27-05-2018 03:22 5 95 13.7 1023.4 2.5 3.6 NE 1024.9 12.9 13.7 0.0
27-05-2018 03:27 5 95 13.6 1023.2 3.6 6.1 E 1024.7 12.8 13.6 0.0
27-05-2018 03:32 5 95 13.5 1023.2 6.1 9.7 NE 1024.7 12.7 13.5 0.0
27-05-2018 03:37 5 95 13.6 1023.2 1.1 5.0 E 1024.7 12.8 13.6 0.0
27-05-2018 03:42 5 95 13.6 1023.2 3.6 5.0 NE 1024.7 12.8 13.6 0.0
27-05-2018 03:47 5 95 13.6 1023.0 2.5 5.0 E 1024.5 12.8 13.6 0.0
27-05-2018 03:52 5 95 13.6 1023.1 2.5 5.0 E 1024.6 12.8 13.6 0.0
27-05-2018 03:57 5 95 13.5 1023.1 0.0 0.0 E 1024.6 12.7 13.5 0.0
27-05-2018 04:02 5 95 13.5 1023.1 0.0 0.0 SE 1024.6 12.7 13.5 0.0
27-05-2018 04:07 5 95 13.6 1023.1 0.0 1.1 E 1024.6 12.8 13.6 0.0
27-05-2018 04:12 5 95 13.6 1023.0 0.0 0.0 NE 1024.5 12.8 13.6 0.0
27-05-2018 04:17 5 95 13.6 1022.9 0.0 0.0 NE 1024.4 12.8 13.6 0.0
27-05-2018 04:22 5 95 13.6 1022.9 0.0 0.0 NE 1024.4 12.8 13.6 0.0
27-05-2018 04:27 5 95 13.6 1022.8 0.0 0.0 NE 1024.3 12.8 13.6 0.0
27-05-2018 04:32 5 95 13.7 1022.7 0.0 0.0 E 1024.2 12.9 13.7 0.0
27-05-2018 04:37 5 95 13.8 1022.6 0.0 0.0 E 1024.1 13.0 13.8 0.0
27-05-2018 04:42 5 95 13.8 1022.7 1.1 2.5 E 1024.2 13.0 13.8 0.0
27-05-2018 04:47 5 95 13.9 1022.7 0.0 0.0 E 1024.2 13.1 13.9 0.0
27-05-2018 04:52 5 94 14.0 1022.7 1.1 2.5 N 1024.2 13.1 14.0 0.0
27-05-2018 04:57 5 95 14.0 1022.6 2.5 6.1 NE 1024.1 13.2 14.0 0.0
27-05-2018 05:02 5 95 14.0 1022.6 0.0 3.6 NE 1024.1 13.2 14.0 0.0
27-05-2018 05:07 5 95 14.0 1022.5 0.0 2.5 E 1024.0 13.2 14.0 0.0
27-05-2018 05:12 5 95 14.1 1022.7 1.1 3.6 E 1024.2 13.3 14.1 0.0
27-05-2018 05:17 5 95 14.1 1022.6 2.5 5.0 NE 1024.1 13.3 14.1 0.0
27-05-2018 05:22 5 95 14.0 1022.8 3.6 6.1 NE 1024.3 13.2 14.0 0.0
27-05-2018 05:27 5 95 14.0 1022.7 2.5 6.1 E 1024.2 13.2 14.0 0.0
27-05-2018 05:32 5 95 14.0 1022.7 3.6 6.1 NE 1024.2 13.2 14.0 0.0
27-05-2018 05:37 5 95 14.0 1022.8 5.0 7.2 NE 1024.3 13.2 14.0 0.0
27-05-2018 05:42 5 95 14.0 1022.8 2.5 6.1 N 1024.3 13.2 14.0 0.0
27-05-2018 05:47 5 95 14.1 1022.8 2.5 3.6 NE 1024.3 13.3 14.1 0.0
27-05-2018 05:52 5 95 14.2 1022.9 2.5 3.6 NE 1024.4 13.4 14.2 0.0
27-05-2018 05:57 5 95 14.2 1022.9 1.1 2.5 E 1024.4 13.4 14.2 0.0
27-05-2018 06:02 5 95 14.3 1022.9 2.5 5.0 NE 1024.4 13.5 14.3 0.0
27-05-2018 06:07 5 95 14.3 1022.8 2.5 5.0 NE 1024.3 13.5 14.3 0.0
27-05-2018 06:12 5 95 14.4 1022.8 3.6 6.1 NE 1024.3 13.6 14.4 0.0
27-05-2018 06:17 5 95 14.4 1022.9 5.0 7.2 NE 1024.4 13.6 14.4 0.0
27-05-2018 06:22 5 95 14.5 1022.8 2.5 3.6 E 1024.3 13.7 14.5 0.0
27-05-2018 06:27 5 95 14.5 1022.6 2.5 3.6 E 1024.1 13.7 14.5 0.0
27-05-2018 06:32 5 95 14.7 1022.8 1.1 2.5 NE 1024.3 13.9 14.7 0.0
27-05-2018 06:37 5 95 14.6 1022.7 2.5 3.6 NE 1024.2 13.8 14.6 0.0
27-05-2018 06:42 5 95 14.7 1022.6 2.5 3.6 NE 1024.1 13.9 14.7 0.0
27-05-2018 06:47 5 95 14.8 1022.6 1.1 2.5 E 1024.1 14.0 14.8 0.0
27-05-2018 06:52 5 96 14.9 1022.7 1.1 3.6 NE 1024.2 14.3 14.9 0.0
27-05-2018 06:57 5 95 14.9 1022.7 1.1 2.5 E 1024.2 14.1 14.9 0.0
27-05-2018 07:02 5 95 15.0 1022.6 2.5 5.0 NE 1024.1 14.2 15.0 0.0
27-05-2018 07:07 5 96 14.9 1022.7 2.5 3.6 NE 1024.2 14.3 14.9 0.0
27-05-2018 07:12 5 96 14.9 1022.6 5.0 7.2 E 1024.1 14.3 14.9 0.0
27-05-2018 07:17 5 94 15.0 1022.6 5.0 8.6 NE 1024.1 14.1 15.0 0.0
27-05-2018 07:22 5 94 15.0 1022.6 5.0 8.6 NE 1024.1 14.1 15.0 0.0
27-05-2018 07:27 5 94 15.2 1022.7 1.1 8.6 E 1024.2 14.3 15.2 0.0
27-05-2018 07:32 5 93 15.4 1022.8 3.6 6.1 NE 1024.3 14.3 15.4 0.0
27-05-2018 07:37 5 91 15.5 1022.7 2.5 5.0 E 1024.2 14.1 15.5 0.0
27-05-2018 07:42 5 90 15.6 1022.8 2.5 3.6 E 1024.3 14.0 15.6 0.0
27-05-2018 07:47 5 88 15.7 1022.9 5.0 9.7 NE 1024.4 13.7 15.7 0.0
27-05-2018 07:52 5 85 16.0 1022.9 2.5 5.0 E 1024.4 13.5 16.0 0.0
27-05-2018 07:57 5 84 16.1 1023.1 2.5 3.6 E 1024.6 13.4 16.1 0.0
27-05-2018 08:02 5 83 16.1 1023.0 5.0 7.2 E 1024.5 13.2 16.1 0.0
27-05-2018 08:07 5 83 16.1 1023.1 5.0 7.2 E 1024.6 13.2 16.1 0.0
27-05-2018 08:12 5 82 16.2 1023.0 6.1 9.7 E 1024.5 13.1 16.2 0.0
27-05-2018 08:17 5 82 16.3 1023.0 2.5 5.0 SE 1024.5 13.2 16.3 0.0
27-05-2018 08:22 5 82 16.4 1023.0 7.2 9.7 NE 1024.5 13.3 15.6 0.0
27-05-2018 08:27 5 81 16.4 1023.1 2.5 5.0 E 1024.6 13.2 16.4 0.0
27-05-2018 08:32 5 81 16.9 1023.1 2.5 3.6 E 1024.6 13.6 16.9 0.0
27-05-2018 08:37 5 78 17.5 1023.1 6.1 9.7 NE 1024.6 13.6 17.5 0.0
27-05-2018 08:42 5 76 17.0 1023.1 3.6 5.0 N 1024.6 12.8 17.0 0.0
27-05-2018 08:47 5 77 18.1 1023.1 2.5 7.2 SSE 1024.6 14.0 18.1 0.0
27-05-2018 08:52 5 75 18.6 1023.1 3.6 6.1 NE 1024.6 14.1 18.6 0.0
27-05-2018 08:57 5 74 18.6 1023.1 3.6 6.1 N 1024.6 13.9 18.6 0.0
27-05-2018 09:02 5 73 18.7 1023.2 3.6 5.0 SE 1024.7 13.8 18.7 0.0
27-05-2018 09:07 5 73 18.6 1023.3 2.5 3.6 NW 1024.8 13.7 18.6 0.0
27-05-2018 09:12 5 73 18.6 1023.2 9.7 11.2 NNW 1024.7 13.7 17.0 0.0
27-05-2018 09:17 5 74 18.4 1023.1 6.1 9.7 NE 1024.6 13.7 18.4 0.0
27-05-2018 09:22 5 74 18.7 1023.1 7.2 9.7 NE 1024.6 14.0 18.0 0.0
27-05-2018 09:27 5 72 18.5 1023.0 8.6 11.2 NW 1024.5 13.4 17.2 0.0
27-05-2018 09:32 5 74 18.3 1023.2 6.1 8.6 N 1024.7 13.6 18.3 0.0
27-05-2018 09:37 5 74 18.9 1023.1 3.6 7.2 NE 1024.6 14.2 18.9 0.0
27-05-2018 09:42 5 71 19.1 1023.0 5.0 6.1 NE 1024.5 13.7 19.1 0.0
27-05-2018 09:47 5 71 19.1 1023.0 6.1 9.7 E 1024.5 13.7 19.1 0.0
27-05-2018 09:52 5 72 18.9 1023.0 3.6 6.1 NW 1024.5 13.8 18.9 0.0
27-05-2018 09:57 5 72 19.4 1022.9 5.0 8.6 NE 1024.4 14.2 19.4 0.0
27-05-2018 10:02 5 70 19.8 1023.1 7.2 9.7 E 1024.6 14.2 19.2 0.0
27-05-2018 10:07 5 70 19.8 1022.9 7.2 9.7 E 1024.4 14.2 19.2 0.0
27-05-2018 10:12 5 68 20.1 1023.0 7.2 11.2 N 1024.5 14.0 19.5 0.0
27-05-2018 10:17 5 69 19.8 1022.9 6.1 9.7 N 1024.4 14.0 19.8 0.0
27-05-2018 10:22 5 69 19.8 1023.0 5.0 8.6 NE 1024.5 14.0 19.8 0.0
27-05-2018 10:27 5 68 20.4 1023.0 3.6 6.1 NW 1024.5 14.3 20.4 0.0
27-05-2018 10:32 5 66 20.5 1022.9 7.2 8.6 NE 1024.4 14.0 19.9 0.0
27-05-2018 10:37 5 66 20.6 1022.9 9.7 12.2 NE 1024.4 14.1 19.2 0.0
27-05-2018 10:42 5 67 20.6 1022.9 3.6 7.2 NE 1024.4 14.3 20.6 0.0
27-05-2018 10:47 5 66 21.0 1022.8 5.0 7.2 E 1024.3 14.4 21.0 0.0
27-05-2018 10:52 5 65 21.2 1022.9 2.5 5.0 NE 1024.4 14.4 21.2 0.0
27-05-2018 10:57 5 65 21.5 1023.1 2.5 7.2 NE 1024.6 14.7 21.5 0.0
27-05-2018 11:02 5 65 21.6 1022.9 5.0 7.2 NE 1024.4 14.8 21.6 0.0
27-05-2018 11:07 5 64 21.9 1022.9 6.1 8.6 NE 1024.4 14.8 21.9 0.0
27-05-2018 11:12 5 64 21.2 1023.0 11.2 15.8 NE 1024.5 14.1 19.5 0.0
27-05-2018 11:17 5 66 20.9 1023.0 5.0 8.6 NE 1024.5 14.3 20.9 0.0
27-05-2018 11:22 5 66 21.8 1022.8 7.2 9.7 E 1024.3 15.2 21.3 0.0
27-05-2018 11:27 5 66 21.4 1023.0 2.5 5.0 E 1024.5 14.8 21.4 0.0
27-05-2018 11:32 5 65 21.5 1022.9 5.0 9.7 E 1024.4 14.7 21.5 0.0
27-05-2018 11:37 5 65 21.9 1022.9 5.0 11.2 SE 1024.4 15.1 21.9 0.0
27-05-2018 11:42 5 65 21.9 1022.9 5.0 7.2 NW 1024.4 15.1 21.9 0.0
27-05-2018 11:47 5 65 21.9 1022.8 5.0 7.2 N 1024.3 15.1 21.9 0.0
27-05-2018 11:52 5 63 22.3 1022.8 8.6 11.2 NE 1024.3 14.9 21.4 0.0
27-05-2018 11:57 5 63 22.1 1022.8 6.1 7.2 E 1024.3 14.8 22.1 0.0
27-05-2018 12:02 5 63 22.2 1022.9 12.2 17.3 NE 1024.4 14.8 20.4 0.0
27-05-2018 12:07 5 63 22.2 1022.8 12.2 17.3 NE 1024.3 14.8 20.4 0.0
27-05-2018 12:12 5 63 22.6 1022.9 9.7 13.3 NE 1024.4 15.2 21.4 0.0
27-05-2018 12:17 5 63 22.3 1022.9 9.7 13.3 NWW 1024.4 14.9 21.1 0.0
27-05-2018 12:22 5 63 22.5 1022.8 11.2 14.8 NE 1024.3 15.1 21.0 0.0
27-05-2018 12:27 5 64 21.9 1022.9 11.2 15.8 N 1024.4 14.8 20.3 0.0
27-05-2018 12:32 5 65 21.9 1022.7 9.7 17.3 NEE 1024.2 15.1 20.6 0.0
27-05-2018 12:37 5 64 22.5 1022.8 7.2 12.2 E 1024.3 15.4 22.0 0.0
27-05-2018 12:44 5 63 22.8 1022.8 9.7 18.4 NE 1024.3 15.4 21.7 0.0
27-05-2018 12:49 5 63 22.6 1022.8 9.7 12.2 NE 1024.3 15.2 21.4 0.0
27-05-2018 12:54 5 63 22.4 1022.9 11.2 15.8 N 1024.4 15.0 20.9 0.0
27-05-2018 12:59 5 63 22.0 1022.9 8.6 12.2 E 1024.4 14.7 21.0 0.0
27-05-2018 13:04 5 64 22.0 1022.8 9.7 14.8 NEE 1024.3 14.9 20.8 0.0
27-05-2018 13:09 5 63 22.6 1022.8 11.2 14.8 NE 1024.3 15.2 21.1 0.0
27-05-2018 13:14 5 62 22.3 1022.7 6.1 11.2 NEE 1024.2 14.7 22.3 0.0
27-05-2018 13:19 5 62 22.4 1022.8 9.7 12.2 E 1024.3 14.8 21.2 0.0
27-05-2018 13:24 5 62 22.5 1022.6 8.6 12.2 NE 1024.1 14.9 21.6 0.0
27-05-2018 13:29 5 61 22.6 1022.6 6.1 11.2 E 1024.1 14.7 22.6 0.0
27-05-2018 13:34 5 61 22.7 1022.5 9.7 15.8 N 1024.0 14.8 21.5 0.0
27-05-2018 13:39 5 61 22.4 1022.4 8.6 12.2 NE 1023.9 14.5 21.5 0.0
27-05-2018 13:44 5 61 22.8 1022.4 3.6 6.1 SE 1023.9 14.9 22.8 0.0
27-05-2018 13:49 5 58 23.3 1022.4 3.6 6.1 NE 1023.9 14.6 23.3 0.0
27-05-2018 13:54 5 58 23.4 1022.5 9.7 13.3 NE 1024.0 14.7 22.3 0.0
27-05-2018 13:59 5 59 22.7 1022.4 7.2 11.2 NE 1023.9 14.3 22.2 0.0
27-05-2018 14:04 5 59 23.3 1022.6 7.2 11.2 NE 1024.1 14.9 22.8 0.0
27-05-2018 14:09 5 59 23.3 1022.5 7.2 11.2 NE 1024.0 14.9 22.8 0.0
27-05-2018 14:14 5 58 23.5 1022.5 6.1 9.7 SE 1024.0 14.8 23.5 0.0
27-05-2018 14:19 5 58 23.8 1022.3 11.2 14.8 E 1023.8 15.1 22.5 0.0
27-05-2018 14:24 5 57 24.1 1022.3 8.6 15.8 E 1023.8 15.1 23.3 0.0
27-05-2018 14:29 5 58 23.6 1022.4 7.2 9.7 NE 1023.9 14.9 23.1 0.0
27-05-2018 14:34 5 59 23.0 1022.3 11.2 15.8 NW 1023.8 14.6 21.6 0.0
27-05-2018 14:39 5 61 22.5 1022.2 7.2 9.7 NEE 1023.7 14.6 22.0 0.0
27-05-2018 14:44 5 60 23.0 1022.2 5.0 7.2 SEE 1023.7 14.8 23.0 0.0
27-05-2018 14:49 5 58 23.9 1022.0 9.7 12.2 NE 1023.5 15.2 22.9 0.0
27-05-2018 14:54 5 57 24.0 1022.3 9.7 14.8 E 1023.8 15.0 23.0 0.0
27-05-2018 14:59 5 56 24.1 1022.2 12.2 18.4 E 1023.7 14.8 22.6 0.0
27-05-2018 15:04 5 57 23.8 1022.1 8.6 14.8 NNE 1023.6 14.8 23.0 0.0
27-05-2018 15:09 5 60 22.8 1022.0 7.2 11.2 E 1023.5 14.7 22.3 0.0
27-05-2018 15:14 5 59 23.8 1021.9 6.1 11.2 N 1023.4 15.3 23.8 0.0
27-05-2018 15:19 5 58 24.2 1021.9 11.2 15.8 E 1023.4 15.4 22.9 0.0
27-05-2018 15:24 5 57 24.4 1021.9 11.2 13.3 NE 1023.4 15.4 23.2 0.0
27-05-2018 15:29 5 56 24.0 1021.9 11.2 13.3 E 1023.4 14.7 22.7 0.0
27-05-2018 15:34 5 56 24.5 1021.8 12.2 17.3 NE 1023.3 15.2 23.1 0.0
27-05-2018 15:39 5 55 24.5 1021.7 8.6 13.3 N 1023.2 14.9 23.8 0.0
27-05-2018 15:44 5 54 24.4 1021.6 7.2 12.2 NE 1023.1 14.5 24.0 0.0
27-05-2018 15:49 5 55 23.5 1021.5 6.1 9.7 N 1023.0 14.0 23.5 0.0
27-05-2018 15:54 5 55 24.2 1021.6 9.7 14.8 NE 1023.1 14.6 23.2 0.0
27-05-2018 15:59 5 53 25.1 1021.5 13.3 19.4 NE 1023.0 14.9 23.6 0.0
27-05-2018 16:04 5 54 24.0 1021.4 8.6 13.3 NE 1022.9 14.1 23.2 0.0
27-05-2018 16:09 5 54 24.0 1021.3 8.6 13.3 NE 1022.8 14.1 23.2 0.0
27-05-2018 16:14 5 54 24.2 1021.3 14.8 20.9 E 1022.8 14.3 22.4 0.0
27-05-2018 16:19 5 55 23.3 1021.4 6.1 12.2 NE 1022.9 13.8 23.3 0.0
27-05-2018 16:24 5 56 23.7 1021.4 6.1 9.7 NE 1022.9 14.4 23.7 0.0
27-05-2018 16:29 5 55 24.6 1021.3 9.7 12.2 NE 1022.8 15.0 23.7 0.0
27-05-2018 16:34 5 53 24.8 1021.5 8.6 12.2 NE 1023.0 14.6 24.1 0.0
27-05-2018 16:39 5 52 25.0 1021.4 8.6 12.2 NE 1022.9 14.5 24.3 0.0
27-05-2018 16:44 5 51 24.6 1021.4 11.2 15.8 NE 1022.9 13.8 23.4 0.0
27-05-2018 16:49 5 52 24.2 1021.4 7.2 9.7 NE 1022.9 13.8 23.8 0.0
27-05-2018 16:54 5 54 23.9 1021.4 6.1 9.7 E 1022.9 14.1 23.9 0.0
27-05-2018 16:59 5 54 24.0 1021.3 7.2 9.7 SE 1022.8 14.1 23.6 0.0
27-05-2018 17:04 5 54 24.6 1021.3 7.2 12.2 S 1022.8 14.7 24.2 0.0
27-05-2018 17:09 5 53 24.4 1021.2 6.1 13.3 E 1022.7 14.2 24.4 0.0
27-05-2018 17:14 5 52 25.0 1021.2 8.6 13.3 NE 1022.7 14.5 24.3 0.0
27-05-2018 17:19 5 52 24.9 1021.3 13.3 18.4 E 1022.8 14.4 23.4 0.0
27-05-2018 17:24 5 53 24.0 1021.3 11.2 14.8 E 1022.8 13.9 22.7 0.0
27-05-2018 17:29 5 56 23.0 1021.3 7.2 14.8 SE 1022.8 13.8 22.5 0.0
27-05-2018 17:34 5 57 23.4 1021.1 5.0 7.2 SE 1022.6 14.4 23.4 0.0
27-05-2018 17:39 5 54 24.4 1021.1 9.7 13.3 NE 1022.6 14.5 23.4 0.0
27-05-2018 17:44 5 53 24.5 1021.1 6.1 9.7 SSE 1022.6 14.3 24.5 0.0
27-05-2018 17:49 5 51 25.0 1021.2 7.2 9.7 E 1022.7 14.2 24.6 0.0
27-05-2018 17:54 5 51 25.3 1021.2 5.0 8.6 NEE 1022.7 14.5 25.3 0.0
27-05-2018 17:59 5 51 25.2 1021.1 5.0 7.2 SE 1022.6 14.4 25.2 0.0
27-05-2018 18:04 5 53 24.6 1021.0 5.0 8.6 E 1022.5 14.4 24.6 0.0
27-05-2018 18:09 5 53 24.6 1021.0 5.0 8.6 E 1022.5 14.4 24.6 0.0
27-05-2018 18:14 5 54 24.4 1021.0 7.2 9.7 E 1022.5 14.5 24.0 0.0
27-05-2018 18:19 5 55 24.3 1021.0 13.3 18.4 SE 1022.5 14.7 22.7 0.0
27-05-2018 18:24 5 56 24.3 1021.1 11.2 14.8 NE 1022.6 15.0 23.1 0.0
27-05-2018 18:29 5 56 24.7 1021.1 5.0 7.2 E 1022.6 15.4 24.7 0.0
27-05-2018 18:34 5 56 24.4 1021.1 6.1 9.7 E 1022.6 15.1 24.4 0.0
27-05-2018 18:39 5 55 24.7 1021.2 8.6 12.2 NEE 1022.7 15.1 24.0 0.0
27-05-2018 18:44 5 56 24.4 1021.2 11.2 15.8 NE 1022.7 15.1 23.2 0.0
27-05-2018 18:49 5 57 24.5 1021.2 9.7 13.3 NE 1022.7 15.5 23.5 0.0
27-05-2018 18:54 5 57 24.1 1021.2 11.2 17.3 E 1022.7 15.1 22.8 0.0
27-05-2018 18:59 5 57 24.1 1021.3 7.2 12.2 SSE 1022.8 15.1 23.7 0.0
27-05-2018 19:04 5 56 24.3 1021.2 5.0 8.6 E 1022.7 15.0 24.3 0.0
27-05-2018 19:09 5 56 24.2 1021.1 6.1 13.3 E 1022.6 14.9 24.2 0.0
27-05-2018 19:14 5 56 24.5 1021.2 3.6 6.1 SSE 1022.7 15.2 24.5 0.0
27-05-2018 19:19 5 55 24.4 1021.1 5.0 8.6 SE 1022.6 14.8 24.4 0.0
27-05-2018 19:24 5 57 24.3 1021.0 6.1 9.7 NE 1022.5 15.3 24.3 0.0
27-05-2018 19:29 5 58 24.3 1021.1 5.0 7.2 N 1022.6 15.5 24.3 0.0
27-05-2018 19:34 5 58 24.5 1021.2 8.6 12.2 E 1022.7 15.7 23.8 0.0
27-05-2018 19:39 5 58 24.6 1021.2 3.6 6.1 NE 1022.7 15.8 24.6 0.0
27-05-2018 19:44 5 59 24.1 1021.4 8.6 13.3 NE 1022.9 15.6 23.3 0.0
27-05-2018 19:49 5 60 24.0 1021.5 5.0 6.1 NE 1023.0 15.8 24.0 0.0
27-05-2018 19:54 5 60 23.5 1021.7 9.7 13.3 NE 1023.2 15.3 22.4 0.0
27-05-2018 19:59 5 61 23.4 1021.3 5.0 6.1 NE 1022.8 15.5 23.4 0.0
27-05-2018 20:04 5 61 23.2 1021.5 7.2 11.2 NW 1023.0 15.3 22.7 0.0
27-05-2018 20:09 5 62 23.0 1021.5 11.2 17.3 E 1023.0 15.4 21.6 0.0
27-05-2018 20:14 5 63 22.6 1021.6 6.1 9.7 E 1023.1 15.2 22.6 0.0
27-05-2018 20:19 5 64 22.4 1021.6 7.2 11.2 SE 1023.1 15.3 21.9 0.0
27-05-2018 20:24 5 64 22.3 1021.7 9.7 14.8 E 1023.2 15.2 21.1 0.0
27-05-2018 20:29 5 65 21.9 1021.8 8.6 12.2 NE 1023.3 15.1 20.9 0.0
27-05-2018 20:34 5 66 21.6 1021.8 5.0 9.7 E 1023.3 15.0 21.6 0.0
27-05-2018 20:39 5 67 21.5 1021.9 5.0 7.2 NE 1023.4 15.1 21.5 0.0
27-05-2018 20:44 5 68 21.2 1022.0 3.6 6.1 NE 1023.5 15.1 21.2 0.0
27-05-2018 20:49 5 70 20.8 1022.0 7.2 12.2 NE 1023.5 15.2 20.2 0.0
27-05-2018 20:54 5 72 20.8 1022.0 6.1 11.2 NEE 1023.5 15.6 20.8 0.0
27-05-2018 20:59 5 73 20.4 1022.0 5.0 7.2 E 1023.5 15.4 20.4 0.0
27-05-2018 21:04 5 73 20.2 1021.9 2.5 6.1 NE 1023.4 15.2 20.2 0.0
27-05-2018 21:09 5 74 20.2 1022.0 3.6 6.1 NE 1023.5 15.4 20.2 0.0
27-05-2018 21:14 5 74 20.0 1021.9 7.2 9.7 N 1023.4 15.2 19.4 0.0
27-05-2018 21:19 5 76 19.6 1021.9 7.2 8.6 SE 1023.4 15.3 18.9 0.0
27-05-2018 21:24 5 76 19.4 1021.9 8.6 12.2 E 1023.4 15.1 18.2 0.0
27-05-2018 21:29 5 76 19.2 1021.8 7.2 8.6 NE 1023.3 14.9 18.5 0.0
27-05-2018 21:34 5 78 18.8 1021.7 6.1 8.6 SE 1023.2 14.9 18.8 0.0
27-05-2018 21:39 5 78 18.7 1021.7 2.5 5.0 E 1023.2 14.8 18.7 0.0
27-05-2018 21:44 5 79 18.4 1021.7 3.6 6.1 E 1023.2 14.7 18.4 0.0
27-05-2018 21:49 5 79 18.1 1021.7 3.6 6.1 E 1023.2 14.4 18.1 0.0
27-05-2018 21:54 5 81 17.9 1021.6 6.1 7.2 SSE 1023.1 14.6 17.9 0.0
27-05-2018 21:59 5 81 17.7 1021.8 6.1 9.7 E 1023.3 14.4 17.7 0.0
27-05-2018 22:04 5 81 17.6 1021.7 6.1 8.6 E 1023.2 14.3 17.6 0.0
27-05-2018 22:09 5 81 17.6 1021.7 6.1 8.6 E 1023.2 14.3 17.6 0.0
27-05-2018 22:14 5 82 17.4 1021.7 2.5 3.6 E 1023.2 14.3 17.4 0.0
27-05-2018 22:19 5 82 17.2 1021.6 5.0 7.2 NE 1023.1 14.1 17.2 0.0
27-05-2018 22:24 5 82 17.1 1021.7 5.0 8.6 NE 1023.2 14.0 17.1 0.0
27-05-2018 22:29 5 84 16.9 1021.8 2.5 3.6 E 1023.3 14.2 16.9 0.0
27-05-2018 22:34 5 84 16.8 1021.8 2.5 3.6 E 1023.3 14.1 16.8 0.0
27-05-2018 22:39 5 84 16.7 1021.9 1.1 3.6 E 1023.4 14.0 16.7 0.0
27-05-2018 22:44 5 84 16.6 1021.8 2.5 5.0 E 1023.3 13.9 16.6 0.0
27-05-2018 22:49 5 84 16.5 1021.8 2.5 3.6 NE 1023.3 13.8 16.5 0.0
27-05-2018 22:54 5 84 16.4 1022.0 0.0 0.0 E 1023.5 13.7 16.4 0.0
27-05-2018 22:59 5 85 16.3 1022.0 0.0 1.1 E 1023.5 13.8 16.3 0.0
27-05-2018 23:04 5 85 16.2 1022.1 2.5 3.6 N 1023.6 13.7 16.2 0.0
27-05-2018 23:09 5 85 16.2 1022.1 1.1 2.5 E 1023.6 13.7 16.2 0.0
27-05-2018 23:14 5 85 16.1 1022.0 0.0 2.5 E 1023.5 13.6 16.1 0.0
27-05-2018 23:19 5 85 16.2 1021.9 3.6 6.1 E 1023.4 13.7 16.2 0.0
27-05-2018 23:24 5 85 16.4 1021.9 3.6 6.1 NE 1023.4 13.9 16.4 0.0
27-05-2018 23:29 5 84 16.8 1021.8 5.0 7.2 NE 1023.3 14.1 16.8 0.0
27-05-2018 23:34 5 83 16.8 1021.8 1.1 3.6 NE 1023.3 13.9 16.8 0.0
27-05-2018 23:39 5 83 16.7 1021.8 1.1 3.6 NEE 1023.3 13.8 16.7 0.0
27-05-2018 23:44 5 82 16.7 1021.7 1.1 3.6 N 1023.2 13.6 16.7 0.0
27-05-2018 23:49 5 81 16.7 1021.8 1.1 2.5 NE 1023.3 13.4 16.7 0.0
27-05-2018 23:54 5 80 16.7 1021.8 0.0 3.6 SE 1023.3 13.3 16.7 0.0
27-05-2018 23:59 5 79 16.7 1021.9 0.0 1.1 NE 1023.4 13.1 16.7 0.0

                                                                            Tabelle: 08 : 00 UHR

STATIONHÖHELUFTD.TEMP.T-MinT-MaxU%RR1RR12SSSDDFFFXWetter+WolkenBöen
UFS TW Ems 0 ------ --- --- --- --- ---- --- --- -- --- --- --- ---
UFS Deutsche Bucht 0 ------ --- --- --- --- ---- --- --- -- --- --- --- ---
Helgoland 4 1023.3 16.1 14.5 19.2 88 0.0 0 --- NO 18 25 Dunst oder flacher Nebel ---
List/Sylt 26 1024.4 17.0 15.3 22.7 82 0.0 0 0 O 16 26 wolkenlos ---
Schleswig 43 1024.0 16.2 14.2 21.7 46 0.0 0 0 O 15 30 stark bewölkt ---
Leuchtturm Kiel 5 1024.0 14.8 14.4 18.5 95 ---- --- --- NO 11 --- --- ---
Kiel 27 1023.9 15.2 13.5 20.2 90 0.0 0 --- O 15 21 --- ---
Fehmarn 3 1023.9 15.0 13.0 17.8 95 0.0 0 --- O 13 19 Dunst oder flacher Nebel ---
Arkona 42 1023.8 14.2 13.9 15.0 100 0.0 0 --- NO 26 36 Nebel ---
Norderney 11 1022.4 16.2 15.6 19.0 84 0.0 0 --- NO 14 24 wolkenlos ---
Leuchtt. Alte Weser 32 1022.4 16.3 16.1 22.8 88 ---- --- --- O 18 --- --- ---
Cuxhaven 5 1023.0 16.3 15.8 22.3 84 0.0 0 --- O 19 25 Dunst oder flacher Nebel ---
Hamburg-Flh. 11 1023.1 14.5 12.7 21.5 92 0.0 0 0 NO 17 28 Dunst oder flacher Nebel ---
Schwerin 59 1023.2 13.0 11.6 20.7 97 0.0 0 --- NO 8 21 --- ---
Rostock 4 1023.4 12.8 10.7 13.9 96 0.0 0 --- NO 6 16 Dunst oder flacher Nebel ---
Greifswald 2 1023.3 14.5 14.4 16.7 95 0.0 0 0 NO 13 21 bedeckt ---
Emden 0 1021.8 17.1 13.6 23.5 73 0.0 0 --- NO 12 18 wolkenlos ---
Bremen-Flh. 5 1021.8 16.9 13.9 25.3 76 0.0 0 0 NO 15 21 heiter ---
Lüchow 17 1022.4 14.6 11.0 23.4 87 0.0 0 --- N 7 15 --- ---
Marnitz 81 1022.7 13.8 9.6 21.7 89 0.0 0 --- NO 9 17 Dunst oder flacher Nebel ---
Waren 70 1022.6 14.5 12.0 20.2 89 0.0 0 --- NO 8 14 --- ---
Neuruppin 38 1022.2 13.8 12.3 22.1 93 0.0 0 --- O 6 20 --- ---
Angermünde 56 1022.3 13.9 12.6 21.3 96 0.0 0 0 N 6 12 Nebel ---
Münster/Osnabr.-Flh. 48 1020.0 18.4 15.6 26.3 68 0.0 0 0 NO 10 18 heiter ---
Hannover-Flh. 59 1021.5 17.2 13.5 24.6 76 0.0 0 0 O 11 17 heiter ---
Magdeburg 76 1021.2 18.0 13.1 25.7 74 0.0 0 --- NO 8 15 wolkenlos ---
Potsdam 81 1021.4 16.9 13.8 22.6 82 0.0 0 0 NO 12 18 heiter ---
Berlin-Tegel 37 1021.6 16.9 13.9 22.3 76 0.0 0 0 NO 11 21 heiter ---
Berlin-Tempelhof 48 1021.7 17.8 13.7 22.3 77 0.0 0 --- NO 11 19 --- ---
Berlin-Dahlem 51 1021.5 16.9 14.6 22.2 --- ---- 0 0 O 11 --- heiter ---
Lindenberg 91 1021.3 18.0 14.0 22.4 71 0.0 0 0 O 8 20 heiter ---
Düsseldorf-Flh. 45 1018.6 19.3 15.3 26.7 70 0.0 0 0 NO 8 11 heiter ---
Essen 150 1018.9 18.9 16.9 26.0 68 0.0 0 --- O 10 19 --- ---
Kahler Asten 839 ------ 17.0 14.4 19.5 56 0.0 0 --- O 15 24 --- ---
Bad Lippspringe 157 1019.6 21.1 17.8 25.5 53 0.0 0 --- NO 8 14 --- ---
Fritzlar 174 1020.4 15.2 12.4 25.6 81 ---- 0 0 NW 7 --- heiter ---
Brocken 1142 ------ 14.0 12.2 15.3 59 ---- 0 0 O 14 22 heiter ---
Leipzig-Flh. 142 1020.5 16.8 12.4 24.8 81 0.0 0 0 NO 9 17 heiter ---
Dresden-Flh. 227 1020.6 17.0 13.3 24.5 72 0.0 0 0 NW 3 15 stark bewölkt ---
Cottbus 69 1020.8 18.7 12.2 26.0 65 0.0 0 --- O 6 10 wolkenlos ---
Görlitz 238 1020.7 18.8 12.3 24.5 67 0.0 0 0 O 5 9 heiter ---
Aachen 231 1017.8 19.5 15.7 23.6 80 0.0 0 0 O 12 18 heiter ---
Nürburg 485 1018.4 18.0 14.0 23.1 69 0.0 0 --- - 0 8 --- ---
Köln/Bonn-Flh. 92 1018.5 19.6 13.7 26.8 68 0.0 0 0 S 7 14 heiter ---
Gießen/Wettenberg 203 ------ --- --- --- --- ---- --- --- -- --- --- --- ---
Wasserkuppe 921 ------ 18.2 14.5 18.3 62 0.0 0 0 SO 8 11 heiter ---
Meiningen 450 1019.6 17.9 12.5 21.6 75 0.0 0 --- N 3 5 --- ---
Erfurt 316 1020.3 16.0 12.9 23.7 78 0.0 0 0 NO 6 10 heiter ---
Gera 311 1020.7 14.0 13.3 24.0 91 0.5 1 --- NW 9 13 Regen ---
Fichtelberg 1213 ------ 14.5 13.3 16.6 72 ---- --- 0 SO 13 17 stark bewölkt ---
Trier 265 1017.6 19.3 15.7 25.9 76 0.0 0 --- NO 8 19 --- ---
Hahn-Flh. 497 1018.4 17.1 15.7 22.4 80 0.0 0 --- SO 13 27 --- ---
Frankfurt/M-Flh. 112 1018.6 20.2 17.2 27.0 64 0.0 0 0 O 7 13 bewölkt ---
OF-Wetterpark 119 1018.9 18.6 14.5 26.6 73 0.0 0 --- NO 5 10 --- ---
Würzburg 268 1019.5 17.0 14.4 24.3 85 0.0 0 --- SW 2 9 wolkenlos ---
Bamberg 239 1019.7 16.9 11.5 24.4 82 0.0 0 --- O 4 5 --- ---
Hof 567 1019.9 16.0 12.7 21.3 76 0.0 0 --- O 2 6 --- ---
Weiden 438 1019.9 16.8 12.8 23.1 69 0.0 0 --- NW 3 5 wolkenlos ---
Saarbrücken-Flh. 320 1017.3 19.5 16.3 25.6 74 0.0 0 0 NO 13 21 heiter ---
Karlsruhe-Rheinst. 116 1017.5 19.6 14.7 26.2 75 0.0 0 --- N 6 9 --- ---
Mannheim 96 1018.2 18.4 15.4 26.2 82 0.0 0 --- NW 4 10 --- ---
Stuttgart-Flh. 371 1018.0 16.9 15.2 25.0 83 0.0 0 --- - 0 4 heiter ---
Öhringen 276 1018.7 17.9 15.6 25.5 81 0.0 0 --- NO 5 9 wolkenlos ---
Nürnberg-Flh. 314 1019.4 18.1 12.9 24.0 73 0.0 0 0 O 4 9 heiter ---
Regensburg 366 1019.7 15.9 12.3 23.5 90 0.0 0 --- N 5 13 wolkenlos ---
Straubing 351 1019.5 17.4 11.4 22.6 82 0.0 0 --- O 4 7 --- ---
Großer Arber 1436 ------ 13.9 11.7 14.0 53 0.0 0 --- SO 16 21 wolkenlos ---
Lahr 155 1017.6 19.7 16.1 26.0 81 0.0 0 --- N 3 8 wolkenlos ---
Freudenstadt 797 ------ 16.8 13.4 19.6 81 0.0 0 --- SW 2 8 --- ---
Stötten 734 1017.9 17.8 15.7 20.2 75 0.0 0 --- SO 6 15 --- ---
Augsburg 462 1018.8 16.9 11.7 21.7 85 0.0 0 --- O 3 5 --- ---
München-Flh. 444 1019.1 16.8 10.5 23.1 78 0.0 0 0 NO 4 8 heiter ---
Fürstenzell 476 1019.3 18.5 13.5 21.5 75 0.0 0 --- O 5 9 wolkenlos ---
Feldberg/Schw. 1486 ------ 15.6 13.7 15.7 62 0.0 0 0 SO 15 32   ---
Konstanz 443 1017.7 18.5 17.6 25.2 75 0.0 0 --- N 4 10 --- ---
Kempten 705 1018.2 16.2 11.8 21.7 81 0.0 0 --- -- 5 9 --- ---
Oberstdorf 806 ------ --- --- --- --- ---- --- --- -- --- --- --- ---
Zugspitze 2960 ------ 6.9 2.9 6.9 --- ---- --- 300 O 4 7 bewölkt ---
Hohenpeißenberg 977 ------ 19.6 14.5 20.0 56 0.0 0 0 - 0 11 heiter ---

                                                                                                Tabelle: 20 : 00 UHR

STATIONHÖHELUFTD.TEMP.T-MinT-MaxU%RR1RR12SSSDDFFFXWetter+WolkenBöen
UFS TW Ems 0 1019.0 15.3 13.6 15.3 91 ---- --- --- NO 32 --- --- ---
UFS Deutsche Bucht 26 ------ --- --- --- --- ---- --- --- -- --- --- --- ---
Helgoland 4 1019.7 17.9 15.9 19.5 79 0.0 0 --- NO 33 36 wolkenlos ---
List/Sylt 26 1021.3 20.2 17.0 23.7 70 0.0 0 0 O 30 46 --- ---
Schleswig 43 1021.9 16.4 16.1 20.3 46 0.0 0 0 O 16 30 stark bewölkt ---
Leuchtturm Kiel 5 1021.7 14.4 14.3 15.1 96 ---- --- --- O 40 --- --- ---
Kiel 27 1021.7 15.0 14.9 17.9 91 0.0 0 --- O 17 30 Dunst oder flacher Nebel ---
Fehmarn 3 1022.2 14.5 14.2 16.3 97 0.0 0 --- O 26 37 Dunst oder flacher Nebel ---
Arkona 42 1023.4 14.9 13.7 15.5 95 0.0 0 --- O 19 33 wolkenlos ---
Norderney 11 1018.7 17.6 15.2 21.1 78 0.0 0 --- O 31 44 wolkenlos ---
Leuchtt. Alte Weser 32 1018.6 19.9 15.8 20.8 76 ---- --- --- NO 40 --- --- ---
Cuxhaven 5 1019.5 21.1 16.0 22.8 66 0.0 0 --- O 27 36 wolkenlos ---
Hamburg-Flh 11 1019.6 20.0 14.4 23.4 69 0.0 0 0 NO 23 35 heiter ---
Schwerin 59 1019.8 22.7 13.0 25.1 58 0.0 0 --- O 14 26 --- ---
Rostock 4 1021.6 15.0 12.1 17.2 89 0.0 0 --- NO 13 29 wolkenlos ---
Greifswald 2 1022.5 19.2 14.3 19.2 77 0.0 0 0 O 10 27 heiter ---
Emden 0 1017.5 24.3 17.2 25.7 48 0.0 0 --- NO 19 31 --- ---
Bremen-Flh. 5 1017.9 24.7 16.7 27.5 42 0.0 0 0 O 13 28 heiter ---
Lüchow 17 1018.8 24.0 14.6 27.6 48 0.0 0 --- O 10 30 --- ---
Marnitz 81 1020.1 19.8 13.8 26.5 53 0.0 0 --- SO 32 53 Regen Windböen
Waren 70 1021.7 18.5 14.4 24.8 79 0.3 0 --- S 14 32 leichter Regen ---
Neuruppin 38 1020.4 21.2 13.9 27.4 59 0.0 0 --- NO 12 27 --- ---
Angermünde 56 1021.5 17.9 13.9 28.1 78 0.0 3 0 NO 13 32 Niederschlag ---
Münster/Osnabr.-Flh. 48 1017.1 19.7 18.3 28.1 82 0.0 1 0 NO 6 13 starkes Gewitter ---
Hannover-Flh. 59 1018.1 25.2 17.2 27.2 46 0.0 0 0 SO 19 26 bedeckt ---
Magdeburg 76 1018.2 25.4 17.9 27.8 46 0.0 0 --- O 6 16 --- ---
Potsdam 81 1019.2 23.5 17.0 28.4 56 0.0 0 0 O 16 27 heiter ---
Berlin-Tegel 37 1020.0 22.5 16.7 27.8 54 0.0 0 0 O 17 32 heiter ---
Berlin-Tempelhof 48 1019.9 22.4 17.8 28.2 57 0.0 0 --- O 21 31 --- ---
Berlin-Dahlem 51 1019.7 22.6 16.9 27.8 --- ---- 0 0 O 22 --- bewölkt ---
Lindenberg 91 1019.3 23.0 18.2 27.8 56 0.0 0 0 NO 8 15 heiter ---
Düsseldorf-Flh. 45 1016.0 20.1 19.0 27.9 76 0.2 0 0 O 16 28 Regenschauer ---
Essen 150 1016.0 19.6 18.7 27.1 73 0.0 0 --- O 11 14 leichter Regen ---
Kahler Asten 839 ------ 18.0 15.5 21.6 69 0.0 0 --- O 12 18 --- ---
Bad Lippspringe 157 1017.9 19.2 17.7 28.4 85 0.0 2 --- SO 5 20 Regen ---
Fritzlar 174 1017.1 22.9 15.4 28.0 52 ---- 0 0 O 14 --- heiter ---
Brocken 1142 ------ 15.1 11.6 17.7 68 ---- 16 0 SO 29 36 heiter ---
Leipzig-Flh. 142 1018.1 23.6 16.8 26.9 59 0.0 0 0 S 10 15 bewölkt ---
Dresden-Flh. 227 1018.4 24.3 16.5 27.5 51 0.0 0 0 NO 13 23 stark bewölkt ---
Cottbus 69 1018.7 26.5 18.8 28.5 36 0.0 0 --- O 12 20 --- ---
Görlitz 238 1019.1 22.5 18.9 27.4 65 0.0 0 0 NO 11 22 heiter ---
Aachen 231 1016.5 19.6 14.8 25.9 88 0.0 25 --- NO 13 19 Regen ---
Nürburg 485 1018.6 15.3 14.5 25.7 98 22.6 31 --- N 11 32 leichter Regen ---
Köln/Bonn-Flh. 92 1016.5 20.4 19.4 27.8 87 0.2 0 0 SW 2 8 Gewitter ---
Gießen/Wettenberg 203 ------ --- --- --- --- ---- --- --- -- --- --- --- ---
Wasserkuppe 921 ------ 14.3 14.1 22.8 83 2.6 3 0 O 25 34 Gewitter ---
Meiningen 450 1018.2 18.7 17.7 26.4 74 0.0 0 --- N 15 27 leichter Regen ---
Erfurt 316 1018.2 21.4 15.9 23.9 63 0.4 0 0 NW 3 12 Gewitter ---
Gera 311 1018.1 21.3 14.0 26.0 59 0.0 0 --- O 5 12 --- ---
Fichtelberg 1213 ------ 15.5 14.0 19.3 77 ---- 0 0 O 18 22 Gewitter ---
Trier 265 1015.7 21.9 19.2 27.6 54 0.0 0 --- N 17 32 --- ---
Hahn-Flh. 497 1016.4 15.8 15.8 24.8 90 0.1 4 --- W 9 18 --- ---
Frankfurt/M-Flh. 112 1015.0 24.3 20.3 30.6 61 0.0 0 0 N 11 18 Regen ---
OF-Wetterpark 119 1015.1 24.6 18.6 29.6 66 0.0 0 --- - 0 8 --- ---
Würzburg 268 1015.9 25.3 16.6 28.4 47 0.0 0 --- O 5 10 wolkenlos ---
Bamberg 239 1016.1 24.1 17.0 28.2 57 0.0 0 --- NO 10 19 --- ---
Hof 567 1018.0 17.9 15.8 24.8 73 0.0 4 --- NO 6 15 --- ---
Weiden 438 1016.5 24.1 16.8 28.1 43 0.0 0 --- O 10 22 wolkenlos ---
Saarbrücken-Flh. 320 1015.3 23.3 19.4 25.0 55 0.0 0 0 NO 8 15 heiter ---
Karlsruhe-Rheinst. 116 1015.3 24.8 19.5 28.8 63 0.0 0 --- NO 9 13 --- ---
Mannheim 96 1015.3 22.2 18.5 29.7 86 0.0 0 --- N 6 8 --- ---
Stuttgart-Flh. 371 1014.8 24.6 16.9 27.5 52 0.0 0 --- NW 3 15 heiter ---
Öhringen 276 1015.1 25.1 18.0 28.5 58 0.0 0 --- NO 9 11 --- ---
Nürnberg-Flh. 314 1015.5 25.0 18.2 28.4 55 0.0 0 0 N 8 18 heiter ---
Regensburg 366 1015.6 25.6 16.0 28.8 42 0.0 0 --- O 6 15 wolkenlos ---
Straubing 351 1016.7 22.4 17.6 27.1 53 0.0 0 --- O 21 37 --- ---
Großer Arber 1436 ------ 15.4 13.7 18.2 76 0.0 0 --- SO 13 21 --- ---
Lahr 155 1014.9 24.2 19.7 28.3 67 0.0 0 --- NO 8 13 wolkenlos ---
Freudenstadt 797 ------ 19.2 16.9 24.0 87 0.0 2 --- NO 6 10 Regen ---
Stötten 734 1015.2 21.8 17.5 25.2 58 0.0 0 --- O 13 20 --- ---
Augsburg 462 1015.0 23.4 16.8 26.5 57 0.0 0 --- O 6 14 --- ---
München-Flh. 444 1015.3 24.6 16.9 26.2 41 0.0 0 0 NO 6 13 heiter ---
Fürstenzell 476 1017.8 17.6 17.4 27.5 88 0.4 4 --- NO 9 28 leichter Regen ---
Feldberg/Schw. 1486 ------ 14.9 12.1 17.9 77 0.0 9 0 O 22 32   ---
Konstanz 443 1013.9 24.9 18.6 27.4 56 0.0 0 --- N 7 17 --- ---
Kempten 705 1014.5 22.6 16.2 25.2 51 0.0 0 --- -- 7 15 wolkenlos ---
Oberstdorf 806 ------ --- --- --- --- ---- --- --- -- --- --- --- ---
Zugspitze 2960 ------ 6.2 2.9 7.9 --- ---- 11 295 SO 13 17 heiter ---
Hohenpeißenberg 977 ------ 18.7 18.0 22.5 67 0.0 0 --- SO 11 15 --- ---

                                                                                   

  • Temperatur
  • Wetterzustand
  • Windrichtung und -geschwindigkeit
  • Luftdruck
  • relative Luftfeuchtigkeit
  • Sichtweite
  • Gesamtbedeckungsgrad
  • Niederschlag
  • Sonnenscheindauer

 Höhe:     m über NN
Luftd.:   auf Meereshöhe reduzierter Luftdruck in hPa
TEMP.:   Lufttemperatur in Grad Celsius
T-MIN:   Minimumtemperatur der Luft in 2m Höhe in Grad Celsius, von 18 UTC Vortag bis 06 UTC heute
T-MAX:  Maximumtemperatur der Luft in 2m Höhe in Grad Celsius, von 18 UTC Vortag bis 06 UTC heute
RR1:     Niederschlagsmenge, einstündig, mm ist gleich Liter pro
RR12:   Niederschlagsmenge, 12 stündig, 18 UTC Vortag bis 06 UTC heute in mm ist gleich Liter pro
SSS:     Gesamtschneehöhe
DD:      Windrichtung
FF:       Windgeschwindigkeit letztes 10-Minutenmittel in km/h
FX:       höchste Windspitze während der letzten Stunde in km/h
---:      Wert nicht vorhanden

 

2009-2018

Unwetterwarnungen

 

Radarbild          
aktueller Radarfilm Deutschland

Europa-Meteoalarm